Time;durP1;ratioP1;P1;durP2;ratioP2;P2;SDS_P1;SDS_P2;PMS_P1;PMS_P2;Temp;Humidity;BMP_temperature;BMP_pressure;BME280_temperature;BME280_humidity;BME280_pressure;Samples;Min_cycle;Max_cycle;Signal;HPM_P1;HPM_P2
2023/08/11 00:02:07;;;;;;;1999.90;999.90;;;13.50;99.90;;;;;;4971002;28;20073;-76
2023/08/11 00:04:33;;;;;;;1999.90;999.90;;;13.50;99.90;;;;;;4972145;28;20047;-76
2023/08/11 00:06:58;;;;;;;1999.90;999.90;;;13.40;99.90;;;;;;4972715;28;20027;-76
2023/08/11 00:09:26;;;;;;;1999.90;999.90;;;13.40;99.90;;;;;;4972713;28;20043;-76
2023/08/11 00:11:52;;;;;;;1999.90;999.90;;;13.40;99.90;;;;;;4972520;28;20055;-76
2023/08/11 00:14:17;;;;;;;1999.90;999.90;;;13.40;99.90;;;;;;4972061;28;20054;-76
2023/08/11 00:16:43;;;;;;;1999.90;999.90;;;13.40;99.90;;;;;;4971021;28;20485;-76
2023/08/11 00:19:08;;;;;;;1999.90;999.90;;;13.40;99.90;;;;;;4972306;28;20821;-76
2023/08/11 00:21:34;;;;;;;1999.90;999.90;;;13.40;99.90;;;;;;4972238;28;20623;-76
2023/08/11 00:23:59;;;;;;;1999.90;999.90;;;13.40;99.90;;;;;;4971996;28;20507;-76
2023/08/11 00:26:25;;;;;;;1999.90;999.90;;;13.40;99.90;;;;;;4972200;28;20071;-76
2023/08/11 00:28:50;;;;;;;1999.90;999.90;;;13.30;99.90;;;;;;4972459;28;20126;-76
2023/08/11 00:31:16;;;;;;;1999.90;999.90;;;13.30;99.90;;;;;;4972228;28;20047;-76
2023/08/11 00:33:46;;;;;;;1999.90;999.90;;;13.30;99.90;;;;;;4971714;28;20396;-78
2023/08/11 00:36:13;;;;;;;1999.90;999.90;;;13.20;99.90;;;;;;4972129;28;20043;-76
2023/08/11 00:38:39;;;;;;;1999.90;999.90;;;13.20;99.90;;;;;;4972163;28;20477;-76
2023/08/11 00:41:06;;;;;;;1999.90;999.90;;;13.20;99.90;;;;;;4972196;28;20043;-76
2023/08/11 00:43:31;;;;;;;1999.90;999.90;;;13.20;99.90;;;;;;4971863;28;20040;-76
2023/08/11 00:46:07;;;;;;;1999.90;999.90;;;13.20;99.90;;;;;;4971835;28;20041;-76
2023/08/11 00:48:32;;;;;;;1999.90;999.90;;;13.20;99.90;;;;;;4970645;28;20477;-76
2023/08/11 00:50:58;;;;;;;1999.90;999.90;;;13.10;99.90;;;;;;4970151;28;20047;-76
2023/08/11 00:53:24;;;;;;;1999.90;999.90;;;13.10;99.90;;;;;;4971975;28;20462;-76
2023/08/11 00:55:51;;;;;;;1999.90;999.90;;;13.10;99.90;;;;;;4970224;28;20122;-76
2023/08/11 00:58:17;;;;;;;1999.90;999.90;;;13.10;99.90;;;;;;4972237;28;20035;-76
2023/08/11 01:00:44;;;;;;;1999.90;999.90;;;13.10;99.90;;;;;;4974967;28;20100;-76
2023/08/11 01:03:09;;;;;;;1999.90;999.90;;;13.10;99.90;;;;;;4974991;28;20507;-76
2023/08/11 01:05:43;;;;;;;1999.90;999.90;;;13.10;99.90;;;;;;4973626;28;20050;-76
2023/08/11 01:08:18;;;;;;;1999.90;999.90;;;13.10;99.90;;;;;;4974985;28;20032;-76
2023/08/11 01:11:07;;;;;;;1999.90;999.90;;;13.10;99.90;;;;;;4973298;28;20043;-76
2023/08/11 01:13:39;;;;;;;1999.90;999.90;;;13.10;99.90;;;;;;4974702;28;20023;-76
2023/08/11 01:16:07;;;;;;;1999.90;999.90;;;13.00;99.90;;;;;;4973256;28;20092;-76
2023/08/11 01:18:33;;;;;;;1999.90;999.90;;;13.00;99.90;;;;;;4974744;28;20027;-76
2023/08/11 01:21:03;;;;;;;1999.90;999.90;;;13.00;99.90;;;;;;4974780;28;20388;-76
2023/08/11 01:23:29;;;;;;;1999.90;999.90;;;13.00;99.90;;;;;;4974327;28;20492;-76
2023/08/11 01:25:56;;;;;;;1999.90;999.90;;;12.90;99.90;;;;;;4974392;28;20097;-76
2023/08/11 01:28:21;;;;;;;1999.90;999.90;;;12.90;99.90;;;;;;4973270;28;20576;-76
2023/08/11 01:30:48;;;;;;;1999.90;999.90;;;12.90;99.90;;;;;;4974392;28;20067;-76
2023/08/11 01:33:14;;;;;;;1999.90;999.90;;;12.80;99.90;;;;;;4974533;28;20036;-76
2023/08/11 01:35:40;;;;;;;1999.90;999.90;;;12.80;99.90;;;;;;4973733;28;20043;-76
2023/08/11 01:38:06;;;;;;;1999.90;999.90;;;12.90;99.90;;;;;;4974623;28;20027;-76
2023/08/11 01:40:32;;;;;;;1999.90;999.90;;;12.90;99.90;;;;;;4974532;28;20074;-76
2023/08/11 01:43:02;;;;;;;1999.90;999.90;;;12.80;99.90;;;;;;4974517;28;20102;-76
2023/08/11 01:45:28;;;;;;;1999.90;999.90;;;12.80;99.90;;;;;;4973856;28;20118;-76
2023/08/11 01:47:54;;;;;;;1999.90;999.90;;;12.80;99.90;;;;;;4974271;28;20106;-76
2023/08/11 01:50:20;;;;;;;1999.90;999.90;;;12.80;99.90;;;;;;4972874;28;20043;-76
2023/08/11 01:52:47;;;;;;;1999.90;999.90;;;12.80;99.90;;;;;;4974424;28;20035;-76
2023/08/11 01:55:13;;;;;;;1999.90;999.90;;;12.70;99.90;;;;;;4973863;28;20035;-76
2023/08/11 01:57:40;;;;;;;1999.90;999.90;;;12.70;99.90;;;;;;4972718;28;20032;-76
2023/08/11 02:00:09;;;;;;;1999.90;999.90;;;12.70;99.90;;;;;;4974268;28;20131;-76
2023/08/11 02:02:35;;;;;;;1999.90;999.90;;;12.70;99.90;;;;;;4974225;28;20405;-76
2023/08/11 02:05:01;;;;;;;1999.90;999.90;;;12.80;99.90;;;;;;4973872;28;20066;-76
2023/08/11 02:07:26;;;;;;;1999.90;999.90;;;12.70;99.90;;;;;;4974221;28;20384;-76
2023/08/11 02:09:54;;;;;;;1999.90;999.90;;;12.60;99.90;;;;;;4972942;28;20039;-76
2023/08/11 02:12:20;;;;;;;1999.90;999.90;;;12.60;99.90;;;;;;4974163;28;20031;-76
2023/08/11 02:14:46;;;;;;;1999.90;999.90;;;12.60;99.90;;;;;;4973649;28;20031;-76
2023/08/11 02:17:11;;;;;;;1999.90;999.90;;;12.60;99.90;;;;;;4973700;28;20031;-76
2023/08/11 02:19:37;;;;;;;1999.90;999.90;;;12.60;99.90;;;;;;4972661;28;20400;-76
2023/08/11 02:22:02;;;;;;;1999.90;999.90;;;12.60;99.90;;;;;;4974086;28;20500;-76
2023/08/11 02:24:29;;;;;;;1999.90;999.90;;;12.60;99.90;;;;;;4972119;28;20518;-76
2023/08/11 02:26:55;;;;;;;1999.90;999.90;;;12.60;99.90;;;;;;4974115;28;20061;-76
2023/08/11 02:29:20;;;;;;;1999.90;999.90;;;12.50;99.90;;;;;;4973901;28;20043;-76
2023/08/11 02:31:47;;;;;;;1999.90;999.90;;;12.50;99.90;;;;;;4972560;28;20122;-76
2023/08/11 02:34:12;;;;;;;1999.90;999.90;;;12.50;99.90;;;;;;4973675;28;20138;-76
2023/08/11 02:36:38;;;;;;;1999.90;999.90;;;12.40;99.90;;;;;;4973991;28;20117;-75
2023/08/11 02:39:07;;;;;;;1999.90;999.90;;;12.40;99.90;;;;;;4972380;28;20035;-75
2023/08/11 02:41:33;;;;;;;1999.90;999.90;;;12.40;99.90;;;;;;4973660;28;20035;-76
2023/08/11 02:43:58;;;;;;;1999.90;999.90;;;12.40;99.90;;;;;;4971802;28;20039;-75
2023/08/11 02:46:24;;;;;;;1999.90;999.90;;;12.30;99.90;;;;;;4973504;28;20169;-75
2023/08/11 02:48:50;;;;;;;1999.90;999.90;;;12.30;99.90;;;;;;4972238;28;20059;-75
2023/08/11 02:51:15;;;;;;;1999.90;999.90;;;12.30;99.90;;;;;;4972161;28;20393;-76
2023/08/11 02:53:41;;;;;;;1999.90;999.90;;;12.30;99.90;;;;;;4973562;28;20441;-75
2023/08/11 02:56:09;;;;;;;1999.90;999.90;;;12.30;99.90;;;;;;4973046;28;20489;-75
2023/08/11 02:58:35;;;;;;;1999.90;999.90;;;12.30;99.90;;;;;;4973530;28;20472;-75
2023/08/11 03:01:03;;;;;;;1999.90;999.90;;;12.30;99.90;;;;;;4972336;28;20039;-75
2023/08/11 03:03:28;;;;;;;1999.90;999.90;;;12.30;99.90;;;;;;4973267;28;20631;-76
2023/08/11 03:05:56;;;;;;;1999.90;999.90;;;12.30;99.90;;;;;;4973294;28;20185;-75
2023/08/11 03:08:22;;;;;;;1999.90;999.90;;;12.20;99.90;;;;;;4973398;28;20579;-75
2023/08/11 03:10:47;;;;;;;1999.90;999.90;;;12.20;99.90;;;;;;4973243;28;20093;-75
2023/08/11 03:13:13;;;;;;;1999.90;999.90;;;12.20;99.90;;;;;;4973477;28;20039;-75
2023/08/11 03:15:39;;;;;;;1999.90;999.90;;;12.20;99.90;;;;;;4972728;28;20035;-75
2023/08/11 03:18:04;;;;;;;1999.90;999.90;;;12.10;99.90;;;;;;4973456;28;20081;-75
2023/08/11 03:20:30;;;;;;;1999.90;999.90;;;12.10;99.90;;;;;;4972897;28;20035;-75
2023/08/11 03:22:55;;;;;;;1999.90;999.90;;;12.10;99.90;;;;;;4973145;28;20035;-75
2023/08/11 03:25:21;;;;;;;1999.90;999.90;;;12.10;99.90;;;;;;4971144;28;20070;-75
2023/08/11 03:27:47;;;;;;;1999.90;999.90;;;12.20;99.90;;;;;;4973264;28;20035;-75
2023/08/11 03:30:12;;;;;;;1999.90;999.90;;;12.20;99.90;;;;;;4973206;28;20058;-75
2023/08/11 03:32:39;;;;;;;1999.90;999.90;;;12.20;99.90;;;;;;4971921;28;20074;-75
2023/08/11 03:35:08;;;;;;;1999.90;999.90;;;12.20;99.90;;;;;;4972177;28;20623;-75
2023/08/11 03:37:34;;;;;;;1999.90;999.90;;;12.20;99.90;;;;;;4973127;28;20531;-75
2023/08/11 03:40:00;;;;;;;1999.90;999.90;;;12.10;99.90;;;;;;4973147;28;20039;-75
2023/08/11 03:42:26;;;;;;;1999.90;999.90;;;12.20;99.90;;;;;;4974230;28;20502;-75
2023/08/11 03:44:52;;;;;;;1999.90;999.90;;;12.10;99.90;;;;;;4971646;28;20139;-75
2023/08/11 03:47:19;;;;;;;1999.90;999.90;;;12.10;99.90;;;;;;4973668;28;20550;-76
2023/08/11 03:49:45;;;;;;;1999.90;999.90;;;12.10;99.90;;;;;;4972868;28;20073;-75
2023/08/11 03:52:12;;;;;;;1999.90;999.90;;;12.10;99.90;;;;;;4971420;28;20055;-75
2023/08/11 03:54:37;;;;;;;1999.90;999.90;;;12.10;99.90;;;;;;4970871;28;20587;-75
2023/08/11 03:57:03;;;;;;;1999.90;999.90;;;12.20;99.90;;;;;;4972789;28;20043;-75
2023/08/11 03:59:29;;;;;;;1999.90;999.90;;;12.20;99.90;;;;;;4972685;28;20075;-75
2023/08/11 04:01:54;;;;;;;1999.90;999.90;;;12.10;99.90;;;;;;4972907;28;20112;-75
2023/08/11 04:04:20;;;;;;;1999.90;999.90;;;12.20;99.90;;;;;;4970971;28;20031;-75
2023/08/11 04:06:45;;;;;;;1999.90;999.90;;;12.10;99.90;;;;;;4971101;28;20051;-75
2023/08/11 04:09:11;;;;;;;1999.90;999.90;;;12.10;99.90;;;;;;4972751;28;20035;-76
2023/08/11 04:11:38;;;;;;;1999.90;999.90;;;12.10;99.90;;;;;;4971078;28;20058;-75
2023/08/11 04:14:03;;;;;;;1999.90;999.90;;;12.10;99.90;;;;;;4972153;28;20042;-75
2023/08/11 04:16:29;;;;;;;1999.90;999.90;;;12.00;99.90;;;;;;4972505;28;20035;-75
2023/08/11 04:18:54;;;;;;;1999.90;999.90;;;12.00;99.90;;;;;;4971072;28;20174;-75
2023/08/11 04:21:20;;;;;;;1999.90;999.90;;;12.00;99.90;;;;;;4972403;28;20424;-75
2023/08/11 04:23:46;;;;;;;1999.90;999.90;;;12.00;99.90;;;;;;4972321;28;20040;-75
2023/08/11 04:26:11;;;;;;;1999.90;999.90;;;12.00;99.90;;;;;;4972167;28;20039;-75
2023/08/11 04:28:38;;;;;;;1999.90;999.90;;;12.10;99.90;;;;;;4972336;28;20115;-73
2023/08/11 04:31:06;;;;;;;1999.90;999.90;;;12.00;99.90;;;;;;4972258;28;20045;-73
2023/08/11 04:33:32;;;;;;;1999.90;999.90;;;11.90;99.90;;;;;;4974174;28;20437;-73
2023/08/11 04:35:58;;;;;;;1999.90;999.90;;;12.10;99.90;;;;;;4974579;28;20047;-73
2023/08/11 04:38:24;;;;;;;1999.90;999.90;;;12.10;99.90;;;;;;4975149;28;20050;-73
2023/08/11 04:40:50;;;;;;;1999.90;999.90;;;12.20;99.90;;;;;;4974343;28;20081;-73
2023/08/11 04:43:17;;;;;;;1999.90;999.90;;;12.20;99.90;;;;;;4971485;28;20032;-72
2023/08/11 04:45:42;;;;;;;1999.90;999.90;;;12.10;99.90;;;;;;4974130;28;20035;-71
2023/08/11 04:48:08;;;;;;;1999.90;999.90;;;12.10;99.90;;;;;;4974658;28;20036;-73
2023/08/11 04:50:34;;;;;;;1999.90;999.90;;;12.20;99.90;;;;;;4974472;28;20039;-73
2023/08/11 04:53:00;;;;;;;1999.90;999.90;;;12.10;99.90;;;;;;4974794;28;20103;-73
2023/08/11 04:55:26;;;;;;;1999.90;999.90;;;12.10;99.90;;;;;;4973108;28;20043;-73
2023/08/11 04:57:51;;;;;;;1999.90;999.90;;;12.20;99.90;;;;;;4974763;28;20531;-72
2023/08/11 05:00:17;;;;;;;1999.90;999.90;;;12.20;99.90;;;;;;4974758;28;20083;-73
2023/08/11 05:02:44;;;;;;;1999.90;999.90;;;12.20;99.90;;;;;;4975007;28;20484;-74
2023/08/11 05:05:10;;;;;;;1999.90;999.90;;;12.30;99.90;;;;;;4973758;28;20042;-73
2023/08/11 05:07:37;;;;;;;1999.90;999.90;;;12.40;99.90;;;;;;4974542;28;20040;-74
2023/08/11 05:10:04;;;;;;;1999.90;999.90;;;12.40;99.90;;;;;;4974754;28;20043;-74
2023/08/11 05:12:30;;;;;;;1999.90;999.90;;;12.40;99.90;;;;;;4974900;28;20027;-71
2023/08/11 05:14:56;;;;;;;1999.90;999.90;;;12.50;99.90;;;;;;4974549;28;20035;-75
2023/08/11 05:17:21;;;;;;;1999.90;999.90;;;12.50;99.90;;;;;;4974747;28;20039;-73
2023/08/11 05:19:47;;;;;;;1999.90;999.90;;;12.50;99.90;;;;;;4974839;28;20532;-74
2023/08/11 05:22:12;;;;;;;1999.90;999.90;;;12.50;99.90;;;;;;4974868;28;20036;-74
2023/08/11 05:24:38;;;;;;;1999.90;999.90;;;12.50;99.90;;;;;;4972711;28;20039;-73
2023/08/11 05:27:04;;;;;;;1999.90;999.90;;;12.60;99.90;;;;;;4974341;28;20118;-74
2023/08/11 05:29:30;;;;;;;1999.90;999.90;;;12.70;99.90;;;;;;4973020;28;20444;-74
2023/08/11 05:31:55;;;;;;;1999.90;999.90;;;12.70;99.90;;;;;;4972940;28;20520;-75
2023/08/11 05:34:21;;;;;;;1999.90;999.90;;;12.80;99.90;;;;;;4972088;28;20213;-77
2023/08/11 05:36:48;;;;;;;1999.90;999.90;;;12.90;99.90;;;;;;4974483;28;20031;-74
2023/08/11 05:39:13;;;;;;;1999.90;999.90;;;13.00;99.90;;;;;;4973352;28;20118;-72
2023/08/11 05:41:40;;;;;;;1999.90;999.90;;;13.10;99.90;;;;;;4974497;28;20047;-73
2023/08/11 05:44:05;;;;;;;1999.90;999.90;;;13.20;99.90;;;;;;4973717;28;20036;-73
2023/08/11 05:46:31;;;;;;;1999.90;999.90;;;13.30;99.90;;;;;;4974206;28;20043;-74
2023/08/11 05:48:57;;;;;;;1999.90;999.90;;;13.40;99.90;;;;;;4974262;28;20396;-72
2023/08/11 05:51:22;;;;;;;1999.90;999.90;;;13.50;99.90;;;;;;4965644;28;20047;-73
2023/08/11 05:53:48;;;;;;;1999.90;999.90;;;13.60;99.90;;;;;;4963628;28;20050;-73
2023/08/11 05:56:14;;;;;;;1999.90;999.90;;;13.70;99.90;;;;;;4964813;28;20047;-79
2023/08/11 05:58:40;;;;;;;1999.90;999.90;;;13.80;99.90;;;;;;4963672;28;20118;-73
2023/08/11 06:01:06;;;;;;;1999.90;999.90;;;13.90;99.90;;;;;;4963934;28;20036;-74
2023/08/11 06:03:31;;;;;;;1999.90;999.90;;;14.00;99.90;;;;;;4963020;28;20031;-73
2023/08/11 06:06:01;;;;;;;1999.90;999.90;;;14.10;99.90;;;;;;4976997;28;20035;-74
2023/08/11 06:08:28;;;;;;;1999.90;999.90;;;14.20;99.90;;;;;;4963907;28;20107;-73
2023/08/11 06:10:55;;;;;;;1999.90;999.90;;;14.30;99.90;;;;;;4962879;28;20039;-73
2023/08/11 06:13:21;;;;;;;1999.90;999.90;;;14.40;99.90;;;;;;4974570;28;20093;-73
2023/08/11 06:15:47;;;;;;;1999.90;999.90;;;14.50;99.90;;;;;;4954444;28;20126;-73
2023/08/11 06:18:13;;;;;;;1999.90;999.90;;;14.60;99.90;;;;;;4954870;28;20039;-73
2023/08/11 06:20:39;;;;;;;1999.90;999.90;;;14.70;99.90;;;;;;4954509;28;20042;-73
2023/08/11 06:23:04;;;;;;;1999.90;999.90;;;14.80;99.90;;;;;;4953229;28;20042;-72
2023/08/11 06:25:30;;;;;;;1999.90;999.90;;;14.80;99.90;;;;;;4953383;28;20044;-74
2023/08/11 06:27:56;;;;;;;1999.90;999.90;;;14.90;99.90;;;;;;4962049;28;20483;-74
2023/08/11 06:30:21;;;;;;;1999.90;999.90;;;15.00;99.90;;;;;;4971309;28;20043;-74
2023/08/11 06:32:47;;;;;;;1999.90;999.90;;;15.00;99.90;;;;;;4972964;28;20092;-75
2023/08/11 06:35:12;;;;;;;1999.90;999.90;;;15.10;99.90;;;;;;4972785;28;20105;-74
2023/08/11 06:37:38;;;;;;;1999.90;999.90;;;15.20;99.90;;;;;;4973498;28;20059;-74
2023/08/11 06:40:04;;;;;;;1999.90;999.90;;;15.20;99.90;;;;;;4973532;28;20506;-74
2023/08/11 06:42:30;;;;;;;1999.90;999.90;;;15.30;99.90;;;;;;4973676;28;20040;-74
2023/08/11 06:44:56;;;;;;;1999.90;999.90;;;15.40;99.90;;;;;;4972648;28;20035;-74
2023/08/11 06:47:22;;;;;;;1999.90;999.90;;;15.50;99.90;;;;;;4973305;28;20036;-74
2023/08/11 06:49:47;;;;;;;1999.90;999.90;;;15.60;99.90;;;;;;4973209;28;20044;-74
2023/08/11 06:52:13;;;;;;;1999.90;999.90;;;15.70;99.90;;;;;;4973311;28;20039;-74
2023/08/11 06:54:39;;;;;;;1999.90;999.90;;;15.70;99.90;;;;;;4971719;28;20042;-75
2023/08/11 06:57:05;;;;;;;1999.90;999.90;;;15.90;99.90;;;;;;4973059;28;20039;-74
2023/08/11 06:59:30;;;;;;;1999.90;999.90;;;16.00;99.90;;;;;;4976292;28;20039;-77
2023/08/11 07:01:56;;;;;;;1999.90;999.90;;;16.10;99.90;;;;;;4970667;28;20484;-75
2023/08/11 07:04:22;;;;;;;1999.90;999.90;;;16.30;99.90;;;;;;4973154;28;20485;-75
2023/08/11 07:06:47;;;;;;;1999.90;999.90;;;16.50;99.90;;;;;;4961990;28;20031;-76
2023/08/11 07:09:13;;;;;;;1999.90;999.90;;;16.70;99.90;;;;;;4970435;28;20047;-76
2023/08/11 07:11:39;;;;;;;1999.90;999.90;;;16.90;99.90;;;;;;4972558;28;20071;-76
2023/08/11 07:14:05;;;;;;;1999.90;999.90;;;17.10;99.90;;;;;;4971413;28;20032;-75
2023/08/11 07:16:31;;;;;;;1999.90;999.90;;;17.30;99.90;;;;;;4971871;28;20046;-75
2023/08/11 07:18:56;;;;;;;1999.90;999.90;;;17.40;99.90;;;;;;4973275;28;20032;-76
2023/08/11 07:21:22;;;;;;;1999.90;999.90;;;17.70;99.90;;;;;;4972000;28;20047;-76
2023/08/11 07:23:48;;;;;;;1999.90;999.90;;;17.70;99.90;;;;;;4972682;28;20485;-75
2023/08/11 07:26:13;;;;;;;1999.90;999.90;;;18.00;99.90;;;;;;4971798;28;20040;-74
2023/08/11 07:28:40;;;;;;;1999.90;999.90;;;18.20;99.90;;;;;;4973092;28;20125;-75
2023/08/11 07:31:07;;;;;;;1999.90;999.90;;;18.40;99.90;;;;;;4973248;28;20031;-75
2023/08/11 07:33:33;;;;;;;1999.90;999.90;;;18.60;99.90;;;;;;4973048;28;20062;-74
2023/08/11 07:35:59;;;;;;;1999.90;999.90;;;18.70;99.90;;;;;;4972517;28;20126;-74
2023/08/11 07:38:24;;;;;;;1999.90;999.90;;;18.80;99.90;;;;;;4973274;28;20489;-75
2023/08/11 07:40:50;;;;;;;1999.90;999.90;;;19.10;99.90;;;;;;4971583;28;20146;-75
2023/08/11 07:43:15;;;;;;;1999.90;999.90;;;19.30;99.90;;;;;;4973283;28;20027;-74
2023/08/11 07:45:41;;;;;;;1999.90;999.90;;;19.50;99.90;;;;;;4973849;28;20508;-75
2023/08/11 07:48:06;;;;;;;1999.90;999.90;;;19.60;99.90;;;;;;4974018;28;20031;-74
2023/08/11 07:50:35;;;;;;;1999.90;999.90;;;19.80;99.90;;;;;;4973206;28;20047;-75
2023/08/11 07:53:01;;;;;;;1999.90;999.90;;;20.10;99.90;;;;;;4973327;28;20027;-74
2023/08/11 07:55:27;;;;;;;1999.90;999.90;;;20.20;99.90;;;;;;4971152;28;20032;-74
2023/08/11 07:57:52;;;;;;;1999.90;999.90;;;20.50;99.90;;;;;;4972753;28;20032;-75
2023/08/11 08:00:20;;;;;;;1999.90;999.90;;;20.70;99.90;;;;;;4972835;28;20043;-75
2023/08/11 08:02:46;;;;;;;1999.90;999.90;;;20.70;99.90;;;;;;4972680;28;20404;-75
2023/08/11 08:05:12;;;;;;;1999.90;999.90;;;20.90;99.90;;;;;;4972032;28;20050;-75
2023/08/11 08:07:38;;;;;;;1999.90;999.90;;;21.10;99.90;;;;;;4973458;28;20032;-75
2023/08/11 08:10:11;;;;;;;1999.90;999.90;;;21.20;99.90;;;;;;4975502;28;20046;-75
2023/08/11 08:12:37;;;;;;;1999.90;999.90;;;21.40;99.90;;;;;;4975799;28;20032;-75
2023/08/11 08:15:05;;;;;;;1999.90;999.90;;;21.50;99.90;;;;;;4975125;28;20827;-75
2023/08/11 08:17:31;;;;;;;1999.90;999.90;;;21.70;99.90;;;;;;4975376;28;20475;-75
2023/08/11 08:19:57;;;;;;;1999.90;999.90;;;21.80;99.90;;;;;;4975572;28;20040;-74
2023/08/11 08:22:22;;;;;;;1999.90;999.90;;;22.10;99.90;;;;;;4975150;28;20037;-75
2023/08/11 08:24:48;;;;;;;1999.90;999.90;;;22.20;99.90;;;;;;4974763;28;20031;-75
2023/08/11 08:27:17;;;;;;;1999.90;999.90;;;22.40;99.90;;;;;;4975391;28;20031;-74
2023/08/11 08:29:42;;;;;;;1999.90;999.90;;;22.60;99.90;;;;;;4975295;28;20813;-75
2023/08/11 08:32:08;;;;;;;1999.90;999.90;;;22.70;99.90;;;;;;4975341;28;20039;-75
2023/08/11 08:34:33;;;;;;;1999.90;999.90;;;22.90;99.90;;;;;;4973399;28;20053;-74
2023/08/11 08:36:59;;;;;;;1999.90;999.90;;;23.10;99.90;;;;;;4973833;28;20081;-74
2023/08/11 08:39:24;;;;;;;1999.90;999.90;;;23.20;99.90;;;;;;4975233;28;20038;-75
2023/08/11 08:41:52;;;;;;;1999.90;999.90;;;23.30;99.90;;;;;;4975246;28;20044;-75
2023/08/11 08:44:19;;;;;;;1999.90;999.90;;;23.50;99.90;;;;;;4974332;28;20114;-75
2023/08/11 08:46:47;;;;;;;1999.90;999.90;;;23.60;99.90;;;;;;4975117;28;20027;-75
2023/08/11 08:49:13;;;;;;;1999.90;999.90;;;23.60;99.90;;;;;;4973038;28;20059;-75
2023/08/11 08:51:40;;;;;;;1999.90;999.90;;;23.80;99.90;;;;;;4973673;28;20556;-76
2023/08/11 08:54:09;;;;;;;1999.90;999.90;;;23.60;99.90;;;;;;4968925;28;20067;-76
2023/08/11 08:56:39;;;;;;;1999.90;999.90;;;23.50;99.90;;;;;;4972721;28;20035;-76
2023/08/11 08:59:06;;;;;;;1999.90;999.90;;;23.50;99.90;;;;;;4974443;28;20042;-78
2023/08/11 09:01:33;;;;;;;1999.90;999.90;;;23.80;99.90;;;;;;4973744;28;20505;-76
2023/08/11 09:03:59;;;;;;;1999.90;999.90;;;24.00;99.90;;;;;;4972507;28;20067;-76
2023/08/11 09:06:29;;;;;;;1999.90;999.90;;;24.10;99.90;;;;;;4974270;28;20480;-76
2023/08/11 09:08:55;;;;;;;1999.90;999.90;;;24.30;99.90;;;;;;4957487;28;20044;-77
2023/08/11 09:11:21;;;;;;;1999.90;999.90;;;24.20;99.90;;;;;;4974203;28;20038;-75
2023/08/11 09:13:47;;;;;;;1999.90;999.90;;;24.30;99.90;;;;;;4969195;28;20032;-75
2023/08/11 09:16:14;;;;;;;1999.90;999.90;;;24.50;99.90;;;;;;4962983;28;20445;-75
2023/08/11 09:18:40;;;;;;;1999.90;999.90;;;24.50;99.90;;;;;;4963423;28;20122;-75
2023/08/11 09:21:06;;;;;;;1999.90;999.90;;;24.70;99.90;;;;;;4974747;28;20035;-75
2023/08/11 09:23:36;;;;;;;1999.90;999.90;;;24.70;99.90;;;;;;4974303;28;20039;-75
2023/08/11 09:26:01;;;;;;;1999.90;999.90;;;24.90;99.90;;;;;;4973004;28;20066;-75
2023/08/11 09:28:27;;;;;;;1999.90;999.90;;;25.20;99.90;;;;;;4973232;28;20074;-75
2023/08/11 09:30:53;;;;;;;1999.90;999.90;;;25.40;99.90;;;;;;4974473;28;20043;-75
2023/08/11 09:33:22;;;;;;;1999.90;999.90;;;25.40;99.90;;;;;;4973022;28;20485;-76
2023/08/11 09:35:48;;;;;;;1999.90;999.90;;;25.40;99.90;;;;;;4973719;28;20123;-75
2023/08/11 09:38:15;;;;;;;1999.90;999.90;;;25.50;99.00;;;;;;4974180;28;20046;-75
2023/08/11 09:40:41;;;;;;;1999.90;999.90;;;25.50;99.50;;;;;;4974320;28;20035;-75
2023/08/11 09:43:07;;;;;;;1999.90;999.90;;;25.60;99.90;;;;;;4973017;28;20043;-75
2023/08/11 09:45:33;;;;;;;1999.90;999.90;;;25.90;99.10;;;;;;4973907;28;20515;-75
2023/08/11 09:47:59;;;;;;;1999.90;999.90;;;26.00;99.20;;;;;;4989156;28;20054;-75
2023/08/11 09:50:27;;;;;;;1999.90;999.90;;;26.20;98.40;;;;;;5020944;28;20044;-78
2023/08/11 09:52:55;;;;;;;1999.90;999.90;;;26.60;98.80;;;;;;4961065;28;20062;-77
2023/08/11 09:55:21;;;;;;;1999.90;999.90;;;26.80;99.50;;;;;;4966092;28;20118;-81
2023/08/11 09:57:48;;;;;;;1999.90;999.90;;;27.00;96.30;;;;;;4965811;28;20044;-73
2023/08/11 10:00:14;;;;;;;1999.90;999.90;;;26.90;97.10;;;;;;4964599;28;20127;-73
2023/08/11 10:02:58;;;;;;;1999.90;999.90;;;27.10;95.20;;;;;;4969860;28;20448;-74
2023/08/11 10:05:25;;;;;;;1999.90;999.90;;;27.20;95.10;;;;;;4973194;28;20100;-73
2023/08/11 10:07:54;;;;;;;1999.90;999.90;;;27.30;93.20;;;;;;4971905;28;20047;-73
2023/08/11 10:10:22;;;;;;;1999.90;999.90;;;27.30;93.30;;;;;;4974341;28;20501;-71
2023/08/11 10:13:02;;;;;;;1999.90;999.90;;;27.40;94.10;;;;;;4973899;28;20037;-85
2023/08/11 10:15:30;;;;;;;1999.90;999.90;;;27.40;92.60;;;;;;4971912;28;20100;-73
2023/08/11 10:17:56;;;;;;;1999.90;999.90;;;27.50;91.30;;;;;;4972200;28;20416;-74
2023/08/11 10:20:21;;;;;;;1999.90;999.90;;;27.60;91.90;;;;;;4973922;28;20050;-72
2023/08/11 10:22:49;;;;;;;1999.90;999.90;;;27.60;89.60;;;;;;4964783;28;20094;-72
2023/08/11 10:25:15;;;;;;;1999.90;999.90;;;27.70;90.20;;;;;;4972830;28;20039;-72
2023/08/11 10:27:41;;;;;;;1999.90;999.90;;;27.60;91.30;;;;;;4972321;28;20126;-73
2023/08/11 10:30:10;;;;;;;1999.90;999.90;;;27.50;88.40;;;;;;4970726;28;20047;-73
2023/08/11 10:32:38;;;;;;;1999.90;999.90;;;27.50;90.30;;;;;;4970253;28;20038;-72
2023/08/11 10:35:07;;;;;;;1999.90;999.90;;;27.60;90.40;;;;;;4969097;28;20050;-73
2023/08/11 10:37:33;;;;;;;1999.90;999.90;;;27.80;90.50;;;;;;4973316;28;20560;-74
2023/08/11 10:40:04;;;;;;;1999.90;999.90;;;27.90;88.90;;;;;;4973516;28;20113;-74
2023/08/11 10:42:31;;;;;;;1999.90;999.90;;;27.80;90.00;;;;;;4973685;28;20038;-75
2023/08/11 10:45:13;;;;;;;1999.90;999.90;;;28.00;89.60;;;;;;4973731;28;20512;-76
2023/08/11 10:47:53;;;;;;;1999.90;999.90;;;27.60;90.30;;;;;;4973356;28;20177;-72
2023/08/11 10:50:21;;;;;;;1999.90;999.90;;;27.40;90.90;;;;;;4973599;28;20032;-72
2023/08/11 10:52:47;;;;;;;1999.90;999.90;;;27.50;90.10;;;;;;4973377;28;20465;-73
2023/08/11 10:55:16;;;;;;;1999.90;999.90;;;27.70;90.20;;;;;;4972748;28;20318;-72
2023/08/11 10:57:41;;;;;;;1999.90;999.90;;;28.00;91.10;;;;;;5013438;28;20044;-73
2023/08/11 11:00:09;;;;;;;1999.90;999.90;;;28.20;90.80;;;;;;4992240;28;20505;-73
2023/08/11 11:02:35;;;;;;;1999.90;999.90;;;28.20;88.90;;;;;;4973507;28;20031;-73
2023/08/11 11:05:01;;;;;;;1999.90;999.90;;;28.30;91.40;;;;;;4971556;28;20496;-73
2023/08/11 11:07:38;;;;;;;1999.90;999.90;;;28.40;90.60;;;;;;4973784;28;20118;-72
2023/08/11 11:10:04;;;;;;;1999.90;999.90;;;28.50;87.10;;;;;;4953916;28;20039;-74
2023/08/11 11:12:31;;;;;;;1999.90;999.90;;;28.20;89.60;;;;;;4954497;28;20098;-73
2023/08/11 11:14:56;;;;;;;1999.90;999.90;;;28.20;88.10;;;;;;4952456;28;20040;-72
2023/08/11 11:17:22;;;;;;;1999.90;999.90;;;28.40;88.80;;;;;;4952783;28;20449;-73
2023/08/11 11:19:48;;;;;;;1999.90;999.90;;;28.80;90.90;;;;;;4972216;28;20035;-74
2023/08/11 11:22:13;;;;;;;1999.90;999.90;;;29.20;86.10;;;;;;5002626;28;20029;-74
2023/08/11 11:24:39;;;;;;;1999.90;999.90;;;29.40;88.90;;;;;;4964589;28;20377;-72
2023/08/11 11:27:05;;;;;;;1999.90;999.90;;;29.50;84.10;;;;;;4981506;28;20089;-72
2023/08/11 11:29:31;;;;;;;1999.90;999.90;;;29.70;86.40;;;;;;4968499;28;20925;-71
2023/08/11 11:32:04;;;;;;;1999.90;999.90;;;29.80;84.00;;;;;;4971197;28;20082;-73
2023/08/11 11:34:29;;;;;;;1999.90;999.90;;;30.10;84.20;;;;;;4974986;28;20027;-73
2023/08/11 11:36:55;;;;;;;1999.90;999.90;;;30.10;81.40;;;;;;4972125;28;20493;-73
2023/08/11 11:39:22;;;;;;;1999.90;999.90;;;30.00;84.10;;;;;;4991319;28;20039;-73
2023/08/11 11:41:47;;;;;;;1999.90;999.90;;;30.10;84.80;;;;;;4986256;28;20030;-72
2023/08/11 11:44:13;;;;;;;1999.90;999.90;;;30.20;84.00;;;;;;4971059;28;20486;-73
2023/08/11 11:46:39;;;;;;;1999.90;999.90;;;30.50;84.30;;;;;;4977850;28;20047;-73
2023/08/11 11:49:06;;;;;;;1999.90;999.90;;;30.70;85.20;;;;;;4973418;28;20035;-72
2023/08/11 11:51:32;;;;;;;1999.90;999.90;;;30.30;81.10;;;;;;4990645;28;20047;-73
2023/08/11 11:53:58;;;;;;;1999.90;999.90;;;30.40;81.40;;;;;;4987416;28;20043;-73
2023/08/11 11:56:27;;;;;;;1999.90;999.90;;;30.20;81.30;;;;;;4989339;28;20085;-73